createdAt,value
2023-03-26T00:02:05.070Z,82.70
2023-03-26T00:04:34.669Z,82.68
2023-03-26T00:07:03.258Z,82.82
2023-03-26T00:09:31.319Z,82.92
2023-03-26T00:11:59.390Z,82.58
2023-03-26T00:14:27.302Z,82.08
2023-03-26T00:16:55.259Z,81.78
2023-03-26T00:19:23.502Z,81.63
2023-03-26T00:21:52.697Z,81.50
2023-03-26T00:24:20.764Z,81.58
2023-03-26T00:26:53.437Z,81.47
2023-03-26T00:29:28.141Z,81.46
2023-03-26T00:31:56.250Z,81.59
2023-03-26T00:34:25.031Z,81.78
2023-03-26T00:36:56.173Z,81.54
2023-03-26T00:39:24.239Z,81.47
2023-03-26T00:41:54.909Z,81.49
2023-03-26T00:44:23.579Z,81.40
2023-03-26T00:46:51.736Z,81.36
2023-03-26T00:49:20.229Z,81.41
2023-03-26T00:51:48.290Z,81.37
2023-03-26T00:54:16.670Z,81.15
2023-03-26T00:56:45.451Z,81.12
2023-03-26T00:59:13.522Z,81.25
2023-03-26T01:01:41.776Z,81.21
2023-03-26T01:04:34.953Z,81.43
2023-03-26T01:07:11.949Z,81.28
2023-03-26T01:09:50.570Z,81.30
2023-03-26T01:12:24.355Z,81.53
2023-03-26T01:14:56.828Z,81.70
2023-03-26T01:17:24.946Z,81.77
2023-03-26T01:20:13.757Z,81.67
2023-03-26T01:22:54.012Z,81.58
2023-03-26T01:25:25.518Z,81.63
2023-03-26T01:27:57.234Z,81.44
2023-03-26T01:30:25.133Z,81.33
2023-03-26T01:32:53.270Z,81.59
2023-03-26T01:36:09.621Z,81.66
2023-03-26T01:38:40.913Z,81.67
2023-03-26T01:41:10.986Z,81.70
2023-03-26T01:43:45.863Z,81.46
2023-03-26T01:46:16.388Z,81.59
2023-03-26T01:48:46.912Z,81.56
2023-03-26T01:51:26.861Z,81.61
2023-03-26T01:53:57.177Z,81.92
2023-03-26T01:56:51.197Z,81.94
2023-03-26T01:59:34.567Z,81.97
2023-03-26T02:02:34.720Z,81.96
2023-03-26T02:05:05.647Z,82.03
2023-03-26T02:08:22.867Z,82.40
2023-03-26T02:10:57.699Z,82.49
2023-03-26T02:13:26.819Z,82.53
2023-03-26T02:16:03.574Z,82.45
2023-03-26T02:18:39.173Z,82.49
2023-03-26T02:21:12.442Z,82.60
2023-03-26T02:23:47.224Z,82.60
2023-03-26T02:26:18.797Z,82.42
2023-03-26T02:29:10.162Z,82.57
2023-03-26T02:31:39.311Z,82.47
2023-03-26T02:34:07.404Z,82.81
2023-03-26T02:36:37.059Z,82.62
2023-03-26T02:39:05.962Z,82.49
2023-03-26T02:41:38.183Z,82.32
2023-03-26T02:44:09.578Z,82.12
2023-03-26T02:46:58.040Z,82.10
2023-03-26T02:49:58.663Z,82.29
2023-03-26T02:52:49.916Z,82.75
2023-03-26T02:55:18.251Z,82.99
2023-03-26T02:57:47.238Z,82.66
2023-03-26T03:00:23.001Z,82.29
2023-03-26T03:03:26.982Z,82.38
2023-03-26T03:05:58.349Z,82.29
2023-03-26T03:08:34.166Z,82.29
2023-03-26T03:11:11.393Z,82.30
2023-03-26T03:13:49.304Z,82.69
2023-03-26T03:16:20.967Z,82.72
2023-03-26T03:18:57.835Z,82.46
2023-03-26T03:21:30.119Z,82.16
2023-03-26T03:24:00.150Z,82.27
2023-03-26T03:26:30.877Z,81.92
2023-03-26T03:29:02.819Z,81.82
2023-03-26T03:31:31.037Z,81.85
2023-03-26T03:34:03.056Z,81.90
2023-03-26T03:36:33.687Z,81.71
2023-03-26T03:39:14.686Z,81.60
2023-03-26T03:41:42.931Z,81.94
2023-03-26T03:44:13.653Z,81.87
2023-03-26T03:46:41.753Z,81.87
2023-03-26T03:49:09.906Z,82.01
2023-03-26T03:51:38.585Z,81.98
2023-03-26T03:54:14.753Z,81.90
2023-03-26T03:56:49.309Z,82.02
2023-03-26T03:59:35.845Z,82.17
2023-03-26T04:02:06.499Z,82.36
2023-03-26T04:04:40.269Z,82.13
2023-03-26T04:07:12.177Z,82.02
2023-03-26T04:10:10.069Z,82.25
2023-03-26T04:12:58.586Z,82.56
2023-03-26T04:15:40.397Z,82.70
2023-03-26T04:18:12.440Z,82.87
2023-03-26T04:20:47.898Z,82.88
2023-03-26T04:23:23.938Z,82.97
2023-03-26T04:26:04.111Z,83.24
2023-03-26T04:28:56.152Z,83.44
2023-03-26T04:31:31.654Z,83.60
2023-03-26T04:34:18.605Z,84.00
2023-03-26T04:37:07.548Z,84.15
2023-03-26T04:39:39.811Z,84.30
2023-03-26T04:42:41.722Z,84.56
2023-03-26T04:45:22.906Z,84.70
2023-03-26T04:47:58.465Z,84.95
2023-03-26T04:50:27.158Z,84.74
2023-03-26T04:52:57.523Z,84.73
2023-03-26T04:55:46.777Z,84.59
2023-03-26T04:58:20.578Z,84.59
2023-03-26T05:01:10.262Z,84.75
2023-03-26T05:03:41.550Z,84.80
2023-03-26T05:06:13.583Z,84.85
2023-03-26T05:08:42.083Z,84.90
2023-03-26T05:11:12.424Z,84.84
2023-03-26T05:13:43.015Z,85.06
2023-03-26T05:16:13.347Z,85.31
2023-03-26T05:18:46.918Z,85.30
2023-03-26T05:21:15.698Z,85.31
2023-03-26T05:23:44.110Z,85.33
2023-03-26T05:26:20.646Z,85.48
2023-03-26T05:28:48.897Z,85.67
2023-03-26T05:31:31.446Z,85.72
2023-03-26T05:34:00.818Z,85.96
2023-03-26T05:36:29.961Z,86.01
2023-03-26T05:39:25.865Z,85.87
2023-03-26T05:41:56.594Z,86.21
2023-03-26T05:44:29.866Z,86.29
2023-03-26T05:47:00.105Z,86.60
2023-03-26T05:49:28.593Z,86.68
2023-03-26T05:51:56.654Z,86.58
2023-03-26T05:54:35.889Z,86.29
2023-03-26T05:57:24.259Z,86.22
2023-03-26T06:00:12.309Z,86.39
2023-03-26T06:02:47.257Z,86.28
2023-03-26T06:05:40.155Z,86.42
2023-03-26T06:08:12.552Z,86.53
2023-03-26T06:10:41.634Z,86.46
2023-03-26T06:13:09.710Z,86.30
2023-03-26T06:15:40.945Z,86.42
2023-03-26T06:18:36.323Z,86.34
2023-03-26T06:21:33.704Z,86.67
2023-03-26T06:24:16.595Z,86.76
2023-03-26T06:27:16.742Z,86.60
2023-03-26T06:29:50.461Z,86.83
2023-03-26T06:32:38.866Z,86.66
2023-03-26T06:35:21.303Z,86.36
2023-03-26T06:37:49.625Z,86.30
2023-03-26T06:40:17.957Z,86.20
2023-03-26T06:43:07.934Z,86.07
2023-03-26T06:46:07.891Z,86.06
2023-03-26T06:48:40.934Z,85.93
2023-03-26T06:51:27.351Z,85.82
2023-03-26T06:54:14.246Z,85.36
2023-03-26T06:56:57.355Z,84.95
2023-03-26T06:59:41.936Z,84.02
2023-03-26T07:02:28.991Z,83.34
2023-03-26T07:05:16.191Z,82.87
2023-03-26T07:08:03.200Z,82.81
2023-03-26T07:10:49.790Z,82.34
2023-03-26T07:13:37.856Z,81.94
2023-03-26T07:16:24.257Z,81.97
2023-03-26T07:19:15.351Z,81.99
2023-03-26T07:21:44.375Z,81.87
2023-03-26T07:24:28.841Z,82.01
2023-03-26T07:27:08.848Z,82.26
2023-03-26T07:30:02.221Z,82.66
2023-03-26T07:32:58.470Z,82.79
2023-03-26T07:35:56.167Z,83.29
2023-03-26T07:39:14.862Z,83.80
2023-03-26T07:42:18.356Z,84.09
2023-03-26T07:45:41.983Z,84.34
2023-03-26T07:48:42.810Z,84.53
2023-03-26T07:51:34.603Z,84.72
2023-03-26T07:54:17.702Z,84.93
2023-03-26T07:57:34.031Z,85.05
2023-03-26T08:00:33.226Z,85.06
2023-03-26T08:03:02.221Z,85.04
2023-03-26T08:06:17.489Z,84.86
2023-03-26T08:09:29.161Z,84.74
2023-03-26T08:12:49.883Z,84.41
2023-03-26T08:15:32.933Z,84.03
2023-03-26T08:18:04.163Z,83.87
2023-03-26T08:20:41.671Z,83.67
2023-03-26T08:23:12.676Z,83.51
2023-03-26T08:26:25.463Z,83.84
2023-03-26T08:29:22.264Z,84.16
2023-03-26T08:31:50.926Z,84.40
2023-03-26T08:34:18.993Z,84.68
2023-03-26T08:36:46.965Z,84.74
2023-03-26T08:39:15.246Z,84.53
2023-03-26T08:42:01.156Z,84.77
2023-03-26T08:44:51.012Z,84.85
2023-03-26T08:47:28.020Z,84.94
2023-03-26T08:50:04.726Z,85.00
2023-03-26T08:53:08.733Z,85.27
2023-03-26T08:56:01.724Z,85.74
2023-03-26T08:59:02.357Z,86.01
2023-03-26T09:01:54.589Z,85.91
2023-03-26T09:04:35.466Z,86.04
2023-03-26T09:07:37.635Z,86.12
2023-03-26T09:10:27.004Z,85.58
2023-03-26T09:13:13.819Z,85.69
2023-03-26T09:15:41.788Z,85.69
2023-03-26T09:18:15.547Z,85.50
2023-03-26T09:20:58.844Z,85.25
2023-03-26T09:23:38.975Z,85.53
2023-03-26T09:26:36.270Z,85.76
2023-03-26T09:29:16.324Z,85.47
2023-03-26T09:32:09.543Z,85.09
2023-03-26T09:35:17.678Z,85.31
2023-03-26T09:38:12.344Z,85.04
2023-03-26T09:40:42.622Z,84.49
2023-03-26T09:43:26.918Z,84.76
2023-03-26T09:46:15.689Z,84.39
2023-03-26T09:48:54.100Z,83.62
2023-03-26T09:51:31.060Z,83.19
2023-03-26T09:54:48.654Z,82.94
2023-03-26T09:57:54.021Z,83.02
2023-03-26T10:00:22.258Z,81.14
2023-03-26T10:03:08.255Z,80.03
2023-03-26T10:05:42.732Z,79.50
2023-03-26T10:08:32.211Z,79.30
2023-03-26T10:11:34.259Z,79.25
2023-03-26T10:14:21.641Z,79.01
2023-03-26T10:17:25.906Z,79.50
2023-03-26T10:20:19.781Z,79.68
2023-03-26T10:23:27.301Z,79.29
2023-03-26T10:26:08.764Z,79.00
2023-03-26T10:29:18.193Z,79.92
2023-03-26T10:32:16.994Z,78.95
2023-03-26T10:35:05.717Z,78.72
2023-03-26T10:37:36.784Z,79.79
2023-03-26T10:40:14.587Z,79.05
2023-03-26T10:43:34.060Z,78.77
2023-03-26T10:46:32.911Z,76.27
2023-03-26T10:49:03.683Z,75.96
2023-03-26T10:51:54.584Z,74.88
2023-03-26T10:54:34.132Z,75.28
2023-03-26T10:57:20.936Z,73.39
2023-03-26T10:59:49.005Z,74.02
2023-03-26T11:02:31.015Z,74.01
2023-03-26T11:05:05.079Z,74.11
2023-03-26T11:07:50.850Z,74.30
2023-03-26T11:10:39.965Z,73.38
2023-03-26T11:13:19.508Z,72.98
2023-03-26T11:16:02.583Z,70.38
2023-03-26T11:18:30.599Z,70.84
2023-03-26T11:21:19.922Z,70.92
2023-03-26T11:24:17.840Z,69.53
2023-03-26T11:26:55.888Z,69.02
2023-03-26T11:29:33.791Z,70.04
2023-03-26T11:32:05.502Z,69.55
2023-03-26T11:35:02.925Z,69.55
2023-03-26T11:37:56.525Z,69.41
2023-03-26T11:40:40.158Z,69.88
2023-03-26T11:43:12.411Z,71.01
2023-03-26T11:45:45.122Z,71.67
2023-03-26T11:48:23.531Z,72.32
2023-03-26T11:51:02.702Z,73.53
2023-03-26T11:53:35.093Z,74.76
2023-03-26T11:56:05.285Z,76.07
2023-03-26T11:58:43.036Z,76.89
2023-03-26T12:01:30.113Z,78.17
2023-03-26T12:04:09.114Z,79.03
2023-03-26T12:06:37.215Z,79.46
2023-03-26T12:09:19.835Z,78.47
2023-03-26T12:11:52.749Z,78.68
2023-03-26T12:14:26.956Z,78.12
2023-03-26T12:17:18.380Z,78.03
2023-03-26T12:20:01.266Z,77.72
2023-03-26T12:22:32.349Z,77.04
2023-03-26T12:25:14.437Z,76.77
2023-03-26T12:27:49.005Z,76.76
2023-03-26T12:30:34.026Z,76.47
2023-03-26T12:33:06.026Z,76.97
2023-03-26T12:35:36.146Z,74.99
2023-03-26T12:38:14.841Z,73.76
2023-03-26T12:40:45.089Z,74.13
2023-03-26T12:44:48.006Z,74.73
2023-03-26T12:47:56.500Z,75.31
2023-03-26T12:49:22.415Z,75.23
2023-03-26T12:51:58.838Z,74.62
2023-03-26T12:54:48.612Z,73.04
2023-03-26T12:57:26.704Z,71.82
2023-03-26T13:00:14.037Z,71.98
2023-03-26T13:02:51.495Z,72.42
2023-03-26T13:05:38.149Z,72.94
2023-03-26T13:08:40.793Z,73.39
2023-03-26T13:11:21.047Z,74.07
2023-03-26T13:14:19.153Z,75.06
2023-03-26T13:17:10.168Z,75.16
2023-03-26T13:20:14.486Z,74.85
2023-03-26T13:22:47.668Z,74.31
2023-03-26T13:25:30.795Z,73.63
2023-03-26T13:28:01.627Z,73.88
2023-03-26T13:30:42.678Z,74.74
2023-03-26T13:33:19.684Z,74.75
2023-03-26T13:36:14.316Z,74.49
2023-03-26T13:39:15.020Z,74.33
2023-03-26T13:42:05.922Z,75.12
2023-03-26T13:45:05.050Z,75.24
2023-03-26T13:47:46.148Z,75.26
2023-03-26T13:50:23.185Z,74.84
2023-03-26T13:53:06.848Z,74.77
2023-03-26T13:55:43.897Z,72.96
2023-03-26T13:58:24.470Z,72.18
2023-03-26T14:01:02.158Z,72.43
2023-03-26T14:03:43.092Z,73.01
2023-03-26T14:06:23.284Z,72.82
2023-03-26T14:08:59.454Z,72.27
2023-03-26T14:11:51.670Z,72.13
2023-03-26T14:14:35.112Z,72.01
2023-03-26T14:17:25.327Z,71.79
2023-03-26T14:20:12.622Z,71.85
2023-03-26T14:23:06.391Z,72.69
2023-03-26T14:25:46.234Z,73.33
2023-03-26T14:28:53.936Z,73.51
2023-03-26T14:31:42.552Z,74.10
2023-03-26T14:34:49.935Z,74.62
2023-03-26T14:38:02.775Z,75.55
2023-03-26T14:40:48.697Z,76.81
2023-03-26T14:43:54.240Z,77.95
2023-03-26T14:46:25.529Z,78.55
2023-03-26T14:49:19.564Z,78.67
2023-03-26T14:52:27.550Z,77.90
2023-03-26T14:55:01.501Z,77.67
2023-03-26T14:57:51.158Z,77.97
2023-03-26T15:00:40.820Z,77.94
2023-03-26T15:03:48.798Z,77.66
2023-03-26T15:06:53.880Z,77.66
2023-03-26T15:10:05.372Z,77.84
2023-03-26T15:12:58.726Z,77.43
2023-03-26T15:16:05.507Z,77.76
2023-03-26T15:18:42.792Z,77.84
2023-03-26T15:21:38.739Z,78.00
2023-03-26T15:24:17.943Z,77.20
2023-03-26T15:27:08.563Z,76.92
2023-03-26T15:29:57.842Z,76.88
2023-03-26T15:32:58.321Z,76.96
2023-03-26T15:35:45.616Z,76.58
2023-03-26T15:38:39.741Z,76.89
2023-03-26T15:41:39.760Z,77.36
2023-03-26T15:44:53.245Z,77.51
2023-03-26T15:47:50.703Z,77.82
2023-03-26T15:50:31.215Z,78.10
2023-03-26T15:53:36.661Z,77.78
2023-03-26T15:56:11.683Z,78.00
2023-03-26T15:58:51.965Z,78.00
2023-03-26T16:01:34.075Z,77.67
2023-03-26T16:04:29.543Z,78.09
2023-03-26T16:07:21.975Z,78.35
2023-03-26T16:10:21.576Z,78.48
2023-03-26T16:13:17.679Z,78.67
2023-03-26T16:16:14.719Z,78.84
2023-03-26T16:18:48.469Z,79.21
2023-03-26T16:21:30.641Z,79.13
2023-03-26T16:24:03.376Z,78.65
2023-03-26T16:26:43.758Z,78.06
2023-03-26T16:29:14.601Z,77.38
2023-03-26T16:32:11.170Z,77.61
2023-03-26T16:34:59.764Z,78.13
2023-03-26T16:37:36.713Z,78.18
2023-03-26T16:40:17.002Z,78.64
2023-03-26T16:42:56.550Z,78.67
2023-03-26T16:45:47.369Z,79.01
2023-03-26T16:48:34.151Z,79.51
2023-03-26T16:51:30.688Z,80.01
2023-03-26T16:54:37.959Z,79.91
2023-03-26T16:57:43.528Z,80.25
2023-03-26T17:00:24.471Z,80.79
2023-03-26T17:03:01.523Z,81.14
2023-03-26T17:05:37.765Z,81.33
2023-03-26T17:08:14.926Z,81.44
2023-03-26T17:11:19.371Z,81.62
2023-03-26T17:14:01.244Z,81.47
2023-03-26T17:16:47.642Z,80.71
2023-03-26T17:19:41.993Z,80.37
2023-03-26T17:22:42.253Z,80.60
2023-03-26T17:25:42.578Z,81.20
2023-03-26T17:28:35.665Z,81.69
2023-03-26T17:31:26.735Z,82.03
2023-03-26T17:33:55.400Z,82.17
2023-03-26T17:36:43.161Z,82.36
2023-03-26T17:39:40.658Z,82.45
2023-03-26T17:42:33.072Z,82.12
2023-03-26T17:45:04.009Z,81.28
2023-03-26T17:47:54.158Z,78.46
2023-03-26T17:50:31.907Z,76.33
2023-03-26T17:53:31.261Z,76.73
2023-03-26T17:56:04.028Z,76.04
2023-03-26T17:58:50.893Z,76.19
2023-03-26T18:01:36.193Z,75.49
2023-03-26T18:04:08.288Z,74.96
2023-03-26T18:06:45.828Z,73.37
2023-03-26T18:09:33.006Z,72.68
2023-03-26T18:12:38.595Z,72.81
2023-03-26T18:15:27.883Z,73.07
2023-03-26T18:18:16.711Z,72.21
2023-03-26T18:20:47.296Z,71.04
2023-03-26T18:23:26.477Z,70.68
2023-03-26T18:26:16.933Z,70.82
2023-03-26T18:29:12.680Z,70.90
2023-03-26T18:31:44.286Z,70.13
2023-03-26T18:34:19.069Z,69.89
2023-03-26T18:37:01.200Z,69.09
2023-03-26T18:39:29.345Z,68.33
2023-03-26T18:41:58.424Z,67.91
2023-03-26T18:44:27.637Z,69.28
2023-03-26T18:46:56.623Z,69.84
2023-03-26T18:49:27.446Z,69.47
2023-03-26T18:51:57.582Z,70.11
2023-03-26T18:54:34.352Z,69.32
2023-03-26T18:57:16.015Z,68.59
2023-03-26T18:59:45.667Z,68.20
2023-03-26T19:02:16.527Z,67.62
2023-03-26T19:04:47.143Z,67.10
2023-03-26T19:07:26.043Z,66.44
2023-03-26T19:09:56.325Z,67.04
2023-03-26T19:12:33.254Z,67.57
2023-03-26T19:15:08.094Z,67.67
2023-03-26T19:17:46.155Z,67.89
2023-03-26T19:20:24.313Z,68.24
2023-03-26T19:22:53.384Z,67.96
2023-03-26T19:25:25.541Z,67.87
2023-03-26T19:27:53.995Z,67.83
2023-03-26T19:30:32.840Z,68.14
2023-03-26T19:33:13.945Z,68.32
2023-03-26T19:35:43.655Z,67.87
2023-03-26T19:38:29.729Z,67.18
2023-03-26T19:40:59.062Z,67.61
2023-03-26T19:43:27.730Z,66.72
2023-03-26T19:46:01.093Z,66.54
2023-03-26T19:48:45.661Z,67.47
2023-03-26T19:51:31.731Z,67.93
2023-03-26T19:54:12.725Z,67.66
2023-03-26T19:56:40.795Z,67.96
2023-03-26T19:59:08.969Z,68.60
2023-03-26T20:01:37.594Z,68.74
2023-03-26T20:04:10.127Z,68.96
2023-03-26T20:09:28.571Z,68.21
2023-03-26T20:11:56.565Z,68.75
2023-03-26T20:14:26.710Z,67.76
2023-03-26T20:16:55.237Z,67.94
2023-03-26T20:19:24.073Z,67.28
2023-03-26T20:21:52.910Z,66.95
2023-03-26T20:24:21.731Z,67.02
2023-03-26T20:26:49.915Z,68.16
2023-03-26T20:29:19.302Z,68.58
2023-03-26T20:31:48.655Z,68.66
2023-03-26T20:34:24.467Z,68.47
2023-03-26T20:36:55.616Z,69.10
2023-03-26T20:39:25.307Z,68.52
2023-03-26T20:41:54.925Z,68.82
2023-03-26T20:44:23.353Z,69.65
2023-03-26T20:46:51.793Z,70.06
2023-03-26T20:49:22.340Z,70.13
2023-03-26T20:51:50.567Z,70.36
2023-03-26T20:54:22.029Z,71.19
2023-03-26T20:56:50.755Z,71.47
2023-03-26T20:59:27.008Z,71.70
2023-03-26T21:01:57.952Z,71.28
2023-03-26T21:04:26.601Z,70.51
2023-03-26T21:07:00.605Z,70.55
2023-03-26T21:09:36.138Z,70.75
2023-03-26T21:12:21.831Z,71.30
2023-03-26T21:14:50.312Z,71.25
2023-03-26T21:17:21.134Z,71.38
2023-03-26T21:19:50.190Z,71.59
2023-03-26T21:22:34.483Z,71.67
2023-03-26T21:25:22.116Z,71.84
2023-03-26T21:28:06.260Z,72.49
2023-03-26T21:30:35.110Z,72.35
2023-03-26T21:33:05.492Z,72.66
2023-03-26T21:35:35.132Z,72.58
2023-03-26T21:38:09.502Z,72.54
2023-03-26T21:40:40.592Z,72.67
2023-03-26T21:43:13.550Z,72.27
2023-03-26T21:45:43.194Z,72.57
2023-03-26T21:48:12.468Z,73.26
2023-03-26T21:50:41.159Z,73.89
2023-03-26T21:53:15.639Z,73.44
2023-03-26T21:55:58.665Z,72.72
2023-03-26T21:58:44.518Z,72.54
2023-03-26T22:01:18.389Z,73.07
2023-03-26T22:04:02.201Z,73.91
2023-03-26T22:06:42.885Z,73.58
2023-03-26T22:09:15.043Z,74.32
2023-03-26T22:11:44.745Z,74.58
2023-03-26T22:14:13.569Z,74.26
2023-03-26T22:16:41.748Z,74.06
2023-03-26T22:19:11.102Z,74.48
2023-03-26T22:21:39.584Z,73.61
2023-03-26T22:24:08.774Z,73.45
2023-03-26T22:26:37.726Z,73.43
2023-03-26T22:29:05.947Z,73.87
2023-03-26T22:31:34.930Z,74.30
2023-03-26T22:34:03.314Z,74.76
2023-03-26T22:36:32.409Z,74.80
2023-03-26T22:39:00.955Z,74.78
2023-03-26T22:41:31.996Z,75.28
2023-03-26T22:44:09.321Z,75.79
2023-03-26T22:46:49.417Z,75.84
2023-03-26T22:49:18.275Z,76.33
2023-03-26T22:51:46.859Z,76.44
2023-03-26T22:54:14.867Z,76.59
2023-03-26T22:56:43.745Z,76.91
2023-03-26T22:59:11.883Z,76.89
2023-03-26T23:01:40.023Z,77.23
2023-03-26T23:04:08.535Z,77.38
2023-03-26T23:06:36.700Z,77.22
2023-03-26T23:09:07.240Z,77.38
2023-03-26T23:11:35.406Z,77.85
2023-03-26T23:14:03.465Z,77.96
2023-03-26T23:16:31.928Z,78.13
2023-03-26T23:19:00.120Z,78.28
2023-03-26T23:21:28.101Z,78.54
2023-03-26T23:23:56.059Z,78.65
2023-03-26T23:26:24.582Z,78.49
2023-03-26T23:28:52.715Z,78.61
2023-03-26T23:31:20.742Z,78.82
2023-03-26T23:33:50.553Z,78.93
2023-03-26T23:36:20.507Z,79.04
2023-03-26T23:38:49.256Z,79.22
2023-03-26T23:41:21.816Z,79.84
2023-03-26T23:43:53.585Z,79.72
2023-03-26T23:46:25.761Z,79.65
2023-03-26T23:48:55.146Z,79.89
2023-03-26T23:51:24.268Z,79.68
2023-03-26T23:53:52.885Z,79.84
2023-03-26T23:56:21.352Z,80.08
2023-03-26T23:58:49.636Z,80.51
